This is the latest recevied weather packets stored in our database for station/object KD8ZLZ. If no packets are shown the sender has not sent any weather packets the latest 10 day(s).
| Time | Temp. | Humidity | Pressure | Rain* | Wind** | Luminosity | Snow |
|---|---|---|---|---|---|---|---|
| 1777356628 | 16.11° C | 92% | 1009.5 hPa | 2.03 mm | - | - | - |
| 1777356348 | 16.11° C | 91% | 1009.5 hPa | 2.29 mm | - | - | - |
| 1777355728 | 16.11° C | 91% | 1009.5 hPa | 2.03 mm | - | - | - |
| 1777353329 | 17.22° C | 86% | 1010.5 hPa | 0.51 mm | - | - | - |
| 1777352428 | 17.22° C | 86% | 1010.5 hPa | 0.51 mm | - | - | - |
| 1777351828 | 17.22° C | 85% | 1010.9 hPa | 0.51 mm | - | - | - |
| 1777350949 | 17.22° C | 87% | 1010.8 hPa | 0.25 mm | - | - | - |
| 1777350349 | 16.67° C | 86% | 1010.8 hPa | 0.25 mm | - | - | - |
| 1777348828 | 17.78° C | 81% | 1010.5 hPa | 0 mm | - | - | - |
| 1777347628 | 17.78° C | 80% | 1010.1 hPa | 0 mm | - | - | - |
| 1777347348 | 17.78° C | 80% | 1010.1 hPa | 0 mm | - | - | - |
| 1777346470 | 17.78° C | 80% | 1010.1 hPa | 0 mm | - | - | - |
| 1777344628 | 18.33° C | 78% | 1010.1 hPa | 0 mm | - | - | - |
| 1777343749 | 18.33° C | 76% | 1010.1 hPa | 0 mm | - | - | - |
| 1777341628 | 18.33° C | 76% | 1010.4 hPa | 0 mm | - | - | - |
| 1777341028 | 17.78° C | 77% | 1010.6 hPa | 0 mm | - | - | - |
| 1777340728 | 17.78° C | 78% | 1010.6 hPa | 0 mm | - | - | - |
| 1777339831 | 16.67° C | 79% | 1010.6 hPa | 0 mm | - | - | - |
| 1777339529 | 16.11° C | 79% | 1010.5 hPa | 0 mm | - | - | - |
| 1777335351 | 15.56° C | 74% | 1010.9 hPa | 0 mm | - | - | - |
| 1777335032 | 15.56° C | 72% | 1010.9 hPa | 0 mm | - | - | - |
| 1777333531 | 15.56° C | 71% | 1014.9 hPa | 0.25 mm | - | - | - |
| 1777333250 | 15.56° C | 70% | 1014.9 hPa | 0.25 mm | - | - | - |
| 1777331728 | 15.56° C | 69% | 1014.9 hPa | 0.25 mm | - | - | - |
| 1777330828 | 15.56° C | 69% | 1015.2 hPa | 0.25 mm | - | - | - |
* Rain latest hour (hover to see other rain measurements)
** Current wind speed in m/s (hover to see current wind gust speed)